Time;durP1;ratioP1;P1;durP2;ratioP2;P2;SDS_P1;SDS_P2;PMS_P1;PMS_P2;Temp;Humidity;BMP_temperature;BMP_pressure;BME280_temperature;BME280_humidity;BME280_pressure;Samples;Min_cycle;Max_cycle;Signal;HPM_P1;HPM_P2
2022/06/26 00:02:00;;;;;;;21.15;11.95;;;;;;;;;;5055249;28;20474;-76
2022/06/26 00:04:26;;;;;;;18.30;12.35;;;;;;;;;;5055361;28;20051;-77
2022/06/26 00:06:52;;;;;;;22.65;13.52;;;;;;;;;;5054931;28;20041;-76
2022/06/26 00:09:18;;;;;;;19.92;13.18;;;;;;;;;;5055110;28;20485;-76
2022/06/26 00:11:44;;;;;;;19.45;12.55;;;;;;;;;;5055063;28;20029;-77
2022/06/26 00:14:10;;;;;;;17.00;10.98;;;;;;;;;;5054873;28;20112;-77
2022/06/26 00:16:36;;;;;;;20.50;11.52;;;;;;;;;;5054212;28;20097;-76
2022/06/26 00:19:02;;;;;;;17.73;11.35;;;;;;;;;;5055064;28;20374;-77
2022/06/26 00:21:28;;;;;;;15.02;10.73;;;;;;;;;;5053339;28;20025;-77
2022/06/26 00:23:54;;;;;;;15.60;10.85;;;;;;;;;;5054821;28;20025;-77
2022/06/26 00:26:20;;;;;;;16.40;10.65;;;;;;;;;;5054804;28;20021;-76
2022/06/26 00:28:46;;;;;;;19.83;11.98;;;;;;;;;;5054688;28;20029;-77
2022/06/26 00:31:12;;;;;;;19.90;11.23;;;;;;;;;;5053103;28;20033;-77
2022/06/26 00:33:38;;;;;;;19.08;12.18;;;;;;;;;;5054436;28;20032;-76
2022/06/26 00:36:04;;;;;;;26.85;12.93;;;;;;;;;;5054598;28;20411;-76
2022/06/26 00:38:30;;;;;;;18.10;11.68;;;;;;;;;;5054466;28;20127;-77
2022/06/26 00:40:56;;;;;;;22.35;11.85;;;;;;;;;;5054122;28;20043;-77
2022/06/26 00:43:27;;;;;;;23.30;13.27;;;;;;;;;;5054001;28;20459;-76
2022/06/26 00:45:53;;;;;;;26.77;13.90;;;;;;;;;;5053620;28;20021;-77
2022/06/26 00:48:19;;;;;;;28.13;14.38;;;;;;;;;;5053907;28;20075;-77
2022/06/26 00:50:45;;;;;;;22.67;12.82;;;;;;;;;;5053919;28;20025;-77
2022/06/26 00:53:11;;;;;;;24.35;13.38;;;;;;;;;;5054245;28;20025;-76
2022/06/26 00:55:38;;;;;;;19.42;11.93;;;;;;;;;;5053972;28;20042;-76
2022/06/26 00:58:04;;;;;;;17.92;11.50;;;;;;;;;;5053904;28;20056;-76
2022/06/26 01:00:30;;;;;;;16.23;10.98;;;;;;;;;;5054093;28;20336;-77
2022/06/26 01:02:56;;;;;;;16.35;10.93;;;;;;;;;;5053950;28;20021;-76
2022/06/26 01:05:22;;;;;;;19.40;10.52;;;;;;;;;;5053842;28;20391;-77
2022/06/26 01:07:48;;;;;;;14.90;9.68;;;;;;;;;;5054074;28;20021;-77
2022/06/26 01:10:14;;;;;;;16.25;10.10;;;;;;;;;;5053796;28;20422;-77
2022/06/26 01:12:40;;;;;;;15.63;10.02;;;;;;;;;;5053749;28;20431;-76
2022/06/26 01:15:07;;;;;;;15.07;10.23;;;;;;;;;;5053420;28;20020;-77
2022/06/26 01:17:34;;;;;;;16.38;10.40;;;;;;;;;;5053776;28;20070;-76
2022/06/26 01:20:00;;;;;;;11.75;8.75;;;;;;;;;;5053290;28;20025;-77
2022/06/26 01:22:27;;;;;;;14.48;8.77;;;;;;;;;;5053415;28;20025;-77
2022/06/26 01:24:53;;;;;;;11.65;8.68;;;;;;;;;;5053473;28;20451;-77
2022/06/26 01:27:19;;;;;;;15.23;9.13;;;;;;;;;;5053032;28;20041;-77
2022/06/26 01:29:45;;;;;;;15.80;8.57;;;;;;;;;;5053274;28;20021;-77
2022/06/26 01:32:11;;;;;;;11.93;8.25;;;;;;;;;;5053472;28;20547;-77
2022/06/26 01:34:37;;;;;;;13.13;8.40;;;;;;;;;;5053049;28;20025;-77
2022/06/26 01:37:03;;;;;;;16.95;9.90;;;;;;;;;;5053256;28;20036;-77
2022/06/26 01:39:29;;;;;;;18.88;9.00;;;;;;;;;;5053107;28;20025;-77
2022/06/26 01:41:55;;;;;;;12.88;8.95;;;;;;;;;;5053285;28;20071;-77
2022/06/26 01:44:21;;;;;;;18.45;9.68;;;;;;;;;;5053347;28;20024;-76
2022/06/26 01:46:47;;;;;;;16.95;10.13;;;;;;;;;;5052938;28;20044;-77
2022/06/26 01:49:13;;;;;;;17.02;10.32;;;;;;;;;;5052981;28;20057;-77
2022/06/26 01:51:39;;;;;;;19.17;10.52;;;;;;;;;;5051636;28;20394;-77
2022/06/26 01:54:05;;;;;;;13.95;10.02;;;;;;;;;;5052798;28;20098;-77
2022/06/26 01:56:31;;;;;;;18.17;10.95;;;;;;;;;;5052681;28;20048;-76
2022/06/26 01:58:58;;;;;;;16.35;10.63;;;;;;;;;;5052801;28;20021;-76
2022/06/26 02:01:24;;;;;;;14.43;10.13;;;;;;;;;;5053029;28;20040;-76
2022/06/26 02:03:49;;;;;;;17.85;10.57;;;;;;;;;;5052586;28;20451;-76
2022/06/26 02:06:16;;;;;;;16.02;10.88;;;;;;;;;;5053235;28;20029;-76
2022/06/26 02:08:42;;;;;;;15.52;10.05;;;;;;;;;;5052663;28;20025;-78
2022/06/26 02:13:54;;;;;;;16.80;10.80;;;;;;;;;;5048211;28;20064;-76
2022/06/26 02:16:26;;;;;;;17.73;10.40;;;;;;;;;;5032510;28;20067;-76
2022/06/26 02:18:52;;;;;;;;;;;;;;;;;;5033578;28;20113;-75
2022/06/26 02:21:22;;;;;;;15.43;10.20;;;;;;;;;;5032549;28;19912;-76
2022/06/26 02:23:49;;;;;;;13.63;9.68;;;;;;;;;;5032790;28;20026;-76
2022/06/26 02:26:17;;;;;;;21.08;10.77;;;;;;;;;;5032673;28;20029;-76
2022/06/26 02:28:43;;;;;;;15.68;9.68;;;;;;;;;;5032524;28;20525;-76
2022/06/26 02:31:09;;;;;;;16.20;9.80;;;;;;;;;;5032336;28;20025;-76
2022/06/26 02:33:35;;;;;;;14.38;9.82;;;;;;;;;;5032290;28;20082;-76
2022/06/26 02:36:03;;;;;;;14.95;10.07;;;;;;;;;;5032465;28;20041;-76
2022/06/26 02:38:29;;;;;;;19.10;11.30;;;;;;;;;;5032684;28;20079;-76
2022/06/26 02:40:55;;;;;;;15.18;10.57;;;;;;;;;;5035770;28;20018;-76
2022/06/26 02:43:24;;;;;;;16.83;10.70;;;;;;;;;;5036283;28;20025;-76
2022/06/26 02:45:50;;;;;;;20.05;11.23;;;;;;;;;;5050520;28;20032;-76
2022/06/26 02:48:17;;;;;;;17.50;11.02;;;;;;;;;;5056447;28;20021;-76
2022/06/26 02:50:43;;;;;;;18.30;12.13;;;;;;;;;;5056370;28;20032;-76
2022/06/26 02:53:09;;;;;;;19.73;12.98;;;;;;;;;;5056460;28;20029;-76
2022/06/26 02:55:35;;;;;;;21.30;13.07;;;;;;;;;;5056538;28;20100;-76
2022/06/26 02:58:02;;;;;;;20.77;12.88;;;;;;;;;;5055955;28;20080;-76
2022/06/26 03:00:28;;;;;;;20.52;12.65;;;;;;;;;;5056126;28;20456;-78
2022/06/26 03:02:54;;;;;;;28.38;13.45;;;;;;;;;;5055952;28;20343;-76
2022/06/26 03:05:20;;;;;;;20.85;12.57;;;;;;;;;;5055923;28;20526;-76
2022/06/26 03:07:46;;;;;;;24.98;13.82;;;;;;;;;;5055990;28;20024;-76
2022/06/26 03:10:12;;;;;;;25.98;14.43;;;;;;;;;;5055869;28;20029;-78
2022/06/26 03:12:47;;;;;;;26.95;14.32;;;;;;;;;;5056337;28;20088;-76
2022/06/26 03:15:14;;;;;;;25.35;15.10;;;;;;;;;;5055990;28;20025;-76
2022/06/26 03:17:41;;;;;;;28.20;14.93;;;;;;;;;;5055997;28;20024;-78
2022/06/26 03:20:17;;;;;;;27.55;15.48;;;;;;;;;;5055722;28;20025;-76
2022/06/26 03:22:44;;;;;;;31.27;15.73;;;;;;;;;;5055937;28;20119;-76
2022/06/26 03:25:10;;;;;;;33.58;16.25;;;;;;;;;;5055773;28;20036;-78
2022/06/26 03:27:36;;;;;;;32.85;16.77;;;;;;;;;;5055387;28;20024;-78
2022/06/26 03:30:03;;;;;;;42.13;19.80;;;;;;;;;;5055398;28;20108;-77
2022/06/26 03:32:29;;;;;;;31.83;17.10;;;;;;;;;;5055545;28;20475;-78
2022/06/26 03:34:55;;;;;;;40.45;17.17;;;;;;;;;;5055155;28;20071;-78
2022/06/26 03:37:21;;;;;;;32.58;17.48;;;;;;;;;;5055397;28;20424;-76
2022/06/26 03:39:47;;;;;;;32.35;17.60;;;;;;;;;;5055459;28;20800;-76
2022/06/26 03:42:13;;;;;;;38.17;17.80;;;;;;;;;;5055404;28;20037;-76
2022/06/26 03:44:39;;;;;;;39.85;18.38;;;;;;;;;;5055273;28;20123;-76
2022/06/26 03:47:05;;;;;;;32.17;17.63;;;;;;;;;;5055383;28;20439;-76
2022/06/26 03:49:31;;;;;;;36.72;17.23;;;;;;;;;;5055349;28;20335;-76
2022/06/26 03:51:58;;;;;;;33.47;17.08;;;;;;;;;;5055204;28;20028;-76
2022/06/26 03:54:25;;;;;;;37.10;17.67;;;;;;;;;;5055002;28;20021;-77
2022/06/26 03:56:51;;;;;;;34.10;17.20;;;;;;;;;;5055020;28;20139;-76
2022/06/26 03:59:17;;;;;;;31.40;16.58;;;;;;;;;;5054855;28;20029;-76
2022/06/26 04:01:43;;;;;;;33.20;17.08;;;;;;;;;;5055474;28;20032;-76
2022/06/26 04:04:09;;;;;;;37.63;17.08;;;;;;;;;;5054999;28;20056;-76
2022/06/26 04:06:35;;;;;;;32.95;18.27;;;;;;;;;;5055275;28;20040;-77
2022/06/26 04:09:02;;;;;;;32.10;16.85;;;;;;;;;;5055130;28;20044;-76
2022/06/26 04:11:28;;;;;;;34.65;17.40;;;;;;;;;;5055035;28;20078;-78
2022/06/26 04:13:54;;;;;;;37.88;18.23;;;;;;;;;;5054822;28;20455;-76
2022/06/26 04:16:20;;;;;;;37.17;18.90;;;;;;;;;;5055016;28;20017;-76
2022/06/26 04:18:46;;;;;;;45.83;19.80;;;;;;;;;;5055093;28;20075;-76
2022/06/26 04:21:12;;;;;;;41.63;18.90;;;;;;;;;;5054812;28;20029;-76
2022/06/26 04:23:38;;;;;;;39.20;18.67;;;;;;;;;;5054908;28;20740;-78
2022/06/26 04:26:05;;;;;;;36.20;18.33;;;;;;;;;;5054805;28;20036;-76
2022/06/26 04:28:37;;;;;;;40.35;19.75;;;;;;;;;;5054622;28;20029;-76
2022/06/26 04:31:03;;;;;;;33.83;18.65;;;;;;;;;;5055058;28;20095;-76
2022/06/26 04:33:29;;;;;;;43.75;20.20;;;;;;;;;;5054640;28;20063;-76
2022/06/26 04:35:55;;;;;;;40.60;19.20;;;;;;;;;;5054980;28;20017;-76
2022/06/26 04:38:21;;;;;;;41.28;18.77;;;;;;;;;;5054307;28;20017;-76
2022/06/26 04:40:47;;;;;;;43.22;19.38;;;;;;;;;;5054485;28;20052;-76
2022/06/26 04:43:13;;;;;;;36.42;18.13;;;;;;;;;;5054465;28;20025;-76
2022/06/26 04:45:39;;;;;;;39.63;18.85;;;;;;;;;;5041810;28;20132;-76
2022/06/26 04:48:05;;;;;;;37.70;17.58;;;;;;;;;;5034456;28;20420;-76
2022/06/26 04:50:31;;;;;;;42.85;18.92;;;;;;;;;;5034311;28;20199;-76
2022/06/26 04:52:57;;;;;;;32.50;16.17;;;;;;;;;;5034354;28;20159;-76
2022/06/26 04:55:23;;;;;;;38.55;16.63;;;;;;;;;;5034260;28;20061;-76
2022/06/26 04:57:49;;;;;;;31.65;15.90;;;;;;;;;;5033833;28;20106;-76
2022/06/26 05:00:16;;;;;;;34.75;15.35;;;;;;;;;;5033965;28;20032;-76
2022/06/26 05:02:42;;;;;;;29.05;14.02;;;;;;;;;;5033623;28;20018;-76
2022/06/26 05:05:08;;;;;;;31.38;15.23;;;;;;;;;;5034394;28;20030;-76
2022/06/26 05:07:34;;;;;;;28.30;14.73;;;;;;;;;;5033789;28;20030;-77
2022/06/26 05:10:00;;;;;;;30.85;15.63;;;;;;;;;;5034055;28;20036;-76
2022/06/26 05:12:26;;;;;;;35.45;15.07;;;;;;;;;;5033857;28;20033;-77
2022/06/26 05:14:52;;;;;;;26.73;15.18;;;;;;;;;;5033545;28;20037;-77
2022/06/26 05:17:19;;;;;;;28.73;15.13;;;;;;;;;;5033799;28;20029;-77
2022/06/26 05:19:45;;;;;;;30.83;15.30;;;;;;;;;;5033945;28;20026;-77
2022/06/26 05:22:11;;;;;;;31.38;14.70;;;;;;;;;;5033481;28;20452;-77
2022/06/26 05:24:37;;;;;;;34.20;17.60;;;;;;;;;;5033787;28;20101;-77
2022/06/26 05:27:03;;;;;;;28.48;13.88;;;;;;;;;;5033465;28;20467;-77
2022/06/26 05:29:29;;;;;;;30.90;14.88;;;;;;;;;;5033696;28;20052;-77
2022/06/26 05:31:55;;;;;;;25.35;13.25;;;;;;;;;;5033650;28;20025;-77
2022/06/26 05:34:22;;;;;;;26.95;14.48;;;;;;;;;;5033628;28;20040;-77
2022/06/26 05:36:48;;;;;;;25.40;13.88;;;;;;;;;;5033276;28;20022;-77
2022/06/26 05:39:14;;;;;;;27.23;12.75;;;;;;;;;;5033428;28;20371;-77
2022/06/26 05:41:40;;;;;;;19.58;11.65;;;;;;;;;;5033570;28;20022;-77
2022/06/26 05:44:06;;;;;;;21.08;11.38;;;;;;;;;;5033331;28;20053;-77
2022/06/26 05:46:32;;;;;;;20.45;10.65;;;;;;;;;;5033231;28;20065;-77
2022/06/26 05:48:58;;;;;;;23.80;11.23;;;;;;;;;;5033080;28;20025;-77
2022/06/26 05:51:24;;;;;;;16.55;9.68;;;;;;;;;;5033108;28;20040;-77
2022/06/26 05:53:50;;;;;;;21.17;10.82;;;;;;;;;;5032980;28;20026;-77
2022/06/26 05:56:16;;;;;;;16.88;10.10;;;;;;;;;;5032876;28;20076;-77
2022/06/26 05:58:42;;;;;;;22.48;9.70;;;;;;;;;;5048351;28;20153;-77
2022/06/26 06:01:08;;;;;;;16.40;9.60;;;;;;;;;;5033032;28;20025;-77
2022/06/26 06:03:34;;;;;;;18.38;8.70;;;;;;;;;;5033114;28;20144;-77
2022/06/26 06:06:00;;;;;;;15.15;8.88;;;;;;;;;;5032870;28;20502;-77
2022/06/26 06:08:26;;;;;;;15.57;9.35;;;;;;;;;;5032908;28;20034;-77
2022/06/26 06:10:52;;;;;;;16.42;8.65;;;;;;;;;;5052042;28;20029;-77
2022/06/26 06:13:18;;;;;;;16.45;8.63;;;;;;;;;;5052497;28;20128;-77
2022/06/26 06:15:44;;;;;;;13.88;7.97;;;;;;;;;;5052543;28;20017;-77
2022/06/26 06:18:12;;;;;;;16.40;7.90;;;;;;;;;;5052680;28;20023;-77
2022/06/26 06:20:38;;;;;;;20.50;8.20;;;;;;;;;;5053140;28;20116;-77
2022/06/26 06:23:06;;;;;;;14.30;8.07;;;;;;;;;;5052774;28;20025;-77
2022/06/26 06:25:33;;;;;;;12.05;6.28;;;;;;;;;;5052934;28;20025;-77
2022/06/26 06:27:59;;;;;;;12.18;6.80;;;;;;;;;;5052577;28;20029;-77
2022/06/26 06:30:25;;;;;;;11.52;6.80;;;;;;;;;;5052601;28;20054;-77
2022/06/26 06:32:51;;;;;;;13.15;7.38;;;;;;;;;;5052709;28;20060;-76
2022/06/26 06:35:17;;;;;;;12.02;6.57;;;;;;;;;;5052471;28;20375;-77
2022/06/26 06:37:44;;;;;;;10.93;6.45;;;;;;;;;;5052841;28;20401;-77
2022/06/26 06:40:11;;;;;;;10.48;6.43;;;;;;;;;;5052757;28;20021;-76
2022/06/26 06:42:37;;;;;;;8.73;5.63;;;;;;;;;;5052515;28;20025;-76
2022/06/26 06:45:03;;;;;;;9.80;5.85;;;;;;;;;;5052525;28;20029;-76
2022/06/26 06:47:30;;;;;;;11.93;5.63;;;;;;;;;;5052889;28;20132;-77
2022/06/26 06:49:56;;;;;;;10.10;5.40;;;;;;;;;;5052506;28;20057;-76
2022/06/26 06:52:22;;;;;;;11.90;6.22;;;;;;;;;;5052269;28;20025;-76
2022/06/26 06:54:48;;;;;;;11.20;5.45;;;;;;;;;;5052553;28;20025;-77
2022/06/26 06:57:14;;;;;;;10.80;5.50;;;;;;;;;;5052339;28;20041;-77
2022/06/26 06:59:40;;;;;;;8.60;5.38;;;;;;;;;;5052380;28;20375;-77
2022/06/26 07:02:06;;;;;;;9.73;5.18;;;;;;;;;;5052797;28;20025;-77
2022/06/26 07:04:32;;;;;;;8.93;5.43;;;;;;;;;;5052804;28;20036;-76
2022/06/26 07:06:58;;;;;;;12.13;5.63;;;;;;;;;;5052381;28;20079;-78
2022/06/26 07:09:24;;;;;;;8.48;4.70;;;;;;;;;;5052270;28;20356;-77
2022/06/26 07:11:50;;;;;;;8.88;4.13;;;;;;;;;;5052414;28;20487;-76
2022/06/26 07:14:16;;;;;;;9.10;4.00;;;;;;;;;;5051980;28;20025;-76
2022/06/26 07:16:42;;;;;;;10.15;4.80;;;;;;;;;;5052404;28;20074;-76
2022/06/26 07:19:08;;;;;;;8.30;4.88;;;;;;;;;;5052056;28;20021;-76
2022/06/26 07:21:34;;;;;;;7.40;4.85;;;;;;;;;;5052094;28;20360;-76
2022/06/26 07:24:00;;;;;;;8.70;5.47;;;;;;;;;;5052357;28;20029;-76
2022/06/26 07:26:27;;;;;;;7.93;4.88;;;;;;;;;;5054578;28;20467;-76
2022/06/26 07:28:53;;;;;;;9.27;5.07;;;;;;;;;;5056143;28;20051;-77
2022/06/26 07:31:19;;;;;;;6.80;4.30;;;;;;;;;;5054521;28;20025;-76
2022/06/26 07:36:30;;;;;;;10.65;4.95;;;;;;;;;;5044330;28;20058;-77
2022/06/26 07:38:56;;;;;;;8.55;4.93;;;;;;;;;;5055787;28;20020;-76
2022/06/26 07:41:22;;;;;;;7.53;4.15;;;;;;;;;;5055593;28;20127;-76
2022/06/26 07:43:48;;;;;;;6.75;4.13;;;;;;;;;;5055646;28;20029;-77
2022/06/26 07:46:14;;;;;;;10.38;4.75;;;;;;;;;;5055377;28;20021;-76
2022/06/26 07:48:40;;;;;;;7.93;4.78;;;;;;;;;;5055375;28;20517;-76
2022/06/26 07:51:06;;;;;;;7.53;4.15;;;;;;;;;;5055089;28;20379;-76
2022/06/26 07:53:32;;;;;;;6.47;4.10;;;;;;;;;;5055131;28;20029;-74
2022/06/26 07:55:59;;;;;;;7.95;4.30;;;;;;;;;;5053523;28;20029;-74
2022/06/26 07:58:25;;;;;;;6.45;4.22;;;;;;;;;;5055077;28;20036;-76
2022/06/26 08:00:51;;;;;;;10.15;5.05;;;;;;;;;;5054836;28;20150;-76
2022/06/26 08:03:17;;;;;;;8.15;4.78;;;;;;;;;;5054917;28;20032;-76
2022/06/26 08:05:44;;;;;;;7.40;5.00;;;;;;;;;;5054712;28;20074;-75
2022/06/26 08:08:10;;;;;;;8.48;6.10;;;;;;;;;;5054940;28;20060;-76
2022/06/26 08:10:37;;;;;;;9.18;5.97;;;;;;;;;;5054471;28;20453;-76
2022/06/26 08:13:07;;;;;;;6.97;5.55;;;;;;;;;;5054551;28;20037;-76
2022/06/26 08:15:33;;;;;;;10.02;6.15;;;;;;;;;;5055045;28;20029;-76
2022/06/26 08:18:01;;;;;;;13.00;6.30;;;;;;;;;;5054834;28;20074;-76
2022/06/26 08:20:27;;;;;;;6.40;5.78;;;;;;;;;;5054337;28;20024;-75
2022/06/26 08:22:53;;;;;;;7.80;5.30;;;;;;;;;;5053690;28;20021;-76
2022/06/26 08:25:19;;;;;;;8.30;4.70;;;;;;;;;;5053804;28;20479;-76
2022/06/26 08:27:45;;;;;;;9.45;4.65;;;;;;;;;;5052761;28;20082;-77
2022/06/26 08:30:11;;;;;;;5.43;4.47;;;;;;;;;;5054092;28;20101;-77
2022/06/26 08:32:38;;;;;;;7.22;3.88;;;;;;;;;;5057474;28;20135;-77
2022/06/26 08:35:07;;;;;;;6.97;4.03;;;;;;;;;;5057628;28;20029;-78
2022/06/26 08:37:33;;;;;;;6.35;4.28;;;;;;;;;;5057572;28;20017;-78
2022/06/26 08:40:00;;;;;;;7.85;4.30;;;;;;;;;;5057900;28;20576;-78
2022/06/26 08:42:30;;;;;;;6.63;4.05;;;;;;;;;;5059283;28;20033;-78
2022/06/26 08:44:58;;;;;;;5.70;3.67;;;;;;;;;;5059141;28;20032;-77
2022/06/26 08:47:25;;;;;;;6.95;3.70;;;;;;;;;;5058023;28;20025;-78
2022/06/26 08:49:51;;;;;;;8.13;3.80;;;;;;;;;;5058600;28;20025;-78
2022/06/26 08:52:19;;;;;;;8.93;3.30;;;;;;;;;;5058901;28;20029;-78
2022/06/26 08:54:45;;;;;;;5.65;3.47;;;;;;;;;;5058773;28;20040;-77
2022/06/26 08:57:14;;;;;;;9.88;3.90;;;;;;;;;;5053010;28;20514;-78
2022/06/26 08:59:40;;;;;;;8.20;3.75;;;;;;;;;;5053480;28;20029;-76
2022/06/26 09:02:07;;;;;;;6.22;4.88;;;;;;;;;;5053470;28;20021;-77
2022/06/26 09:04:33;;;;;;;8.82;4.43;;;;;;;;;;5053033;28;20132;-78
2022/06/26 09:06:59;;;;;;;7.10;4.63;;;;;;;;;;5054014;28;20502;-77
2022/06/26 09:09:27;;;;;;;8.82;4.20;;;;;;;;;;5054204;28;20331;-77
2022/06/26 09:11:57;;;;;;;15.18;5.50;;;;;;;;;;5053051;28;20029;-78
2022/06/26 09:14:23;;;;;;;6.55;4.53;;;;;;;;;;5049848;28;20429;-78
2022/06/26 09:16:50;;;;;;;7.82;4.78;;;;;;;;;;5053173;28;20025;-78
2022/06/26 09:19:19;;;;;;;7.22;4.90;;;;;;;;;;5052584;28;20033;-78
2022/06/26 09:21:45;;;;;;;7.38;5.13;;;;;;;;;;5052520;28;20021;-78
2022/06/26 09:24:12;;;;;;;8.38;5.22;;;;;;;;;;5052304;28;20029;-78
2022/06/26 09:26:41;;;;;;;8.50;4.28;;;;;;;;;;5052671;28;20106;-78
2022/06/26 09:29:10;;;;;;;7.75;4.55;;;;;;;;;;5052222;28;20104;-79
2022/06/26 09:31:37;;;;;;;6.90;4.60;;;;;;;;;;5052155;28;20021;-80
2022/06/26 09:34:04;;;;;;;6.88;4.00;;;;;;;;;;5052224;28;20090;-76
2022/06/26 09:36:30;;;;;;;6.13;3.83;;;;;;;;;;5052740;28;20021;-78
2022/06/26 09:38:56;;;;;;;6.80;4.00;;;;;;;;;;5052746;28;20060;-76
2022/06/26 09:41:31;;;;;;;9.32;3.83;;;;;;;;;;5053156;28;20390;-77
2022/06/26 09:43:58;;;;;;;6.10;4.03;;;;;;;;;;5052747;28;20416;-79
2022/06/26 09:46:31;;;;;;;11.20;4.13;;;;;;;;;;5052591;28;20025;-78
2022/06/26 09:48:58;;;;;;;6.50;4.18;;;;;;;;;;5052561;28;20025;-78
2022/06/26 09:51:24;;;;;;;8.63;4.25;;;;;;;;;;5052929;28;20066;-78
2022/06/26 09:53:51;;;;;;;12.00;3.97;;;;;;;;;;5053057;28;20124;-79
2022/06/26 09:56:17;;;;;;;5.68;4.00;;;;;;;;;;5052507;28;20095;-80
2022/06/26 09:58:44;;;;;;;7.85;3.97;;;;;;;;;;5052516;28;20211;-79
2022/06/26 10:07:02;;;;;;;8.60;4.00;;;;;;;;;;5011136;28;20433;-77
2022/06/26 10:09:28;;;;;;;5.68;3.60;;;;;;;;;;5010728;28;20519;-80
2022/06/26 10:11:56;;;;;;;8.00;3.67;;;;;;;;;;5010348;28;20106;-77
2022/06/26 10:14:24;;;;;;;7.93;3.97;;;;;;;;;;5001237;28;20038;-77
2022/06/26 10:16:59;;;;;;;4.97;3.20;;;;;;;;;;4990210;28;20049;-77
2022/06/26 10:19:45;;;;;;;5.15;3.35;;;;;;;;;;4990136;28;20026;-77
2022/06/26 10:22:11;;;;;;;6.68;3.42;;;;;;;;;;4990004;28;20086;-77
2022/06/26 10:24:47;;;;;;;6.50;3.90;;;;;;;;;;4989746;28;20030;-77
2022/06/26 10:27:13;;;;;;;5.13;3.47;;;;;;;;;;4989919;28;20129;-77
2022/06/26 10:29:40;;;;;;;5.03;3.00;;;;;;;;;;4990187;28;20448;-77
2022/06/26 10:32:09;;;;;;;5.40;3.05;;;;;;;;;;4989513;28;20052;-77
2022/06/26 10:34:35;;;;;;;4.07;2.65;;;;;;;;;;5002957;28;20049;-77
2022/06/26 10:37:14;;;;;;;5.35;3.38;;;;;;;;;;5031758;28;20018;-77
2022/06/26 10:39:42;;;;;;;5.60;2.50;;;;;;;;;;5031681;28;20029;-76
2022/06/26 10:45:16;;;;;;;7.40;3.70;;;;;;;;;;5042922;28;20044;-77
2022/06/26 10:47:44;;;;;;;10.25;3.45;;;;;;;;;;5051319;28;20033;-77
2022/06/26 10:50:29;;;;;;;9.73;3.95;;;;;;;;;;5051253;28;20033;-77
2022/06/26 10:53:15;;;;;;;5.20;2.85;;;;;;;;;;5051026;28;20100;-77
2022/06/26 10:55:42;;;;;;;4.90;2.45;;;;;;;;;;5040823;28;20041;-76
2022/06/26 10:58:09;;;;;;;6.68;2.60;;;;;;;;;;5051242;28;20033;-77
2022/06/26 11:00:35;;;;;;;7.75;2.90;;;;;;;;;;5051036;28;20032;-77
2022/06/26 11:03:12;;;;;;;10.93;3.30;;;;;;;;;;5054927;28;20087;-77
2022/06/26 11:05:38;;;;;;;5.70;3.10;;;;;;;;;;5054733;28;20416;-77
2022/06/26 11:08:04;;;;;;;6.45;2.75;;;;;;;;;;5055024;28;20021;-77
2022/06/26 11:10:30;;;;;;;5.05;2.75;;;;;;;;;;5055165;28;20382;-77
2022/06/26 11:12:56;;;;;;;8.43;3.13;;;;;;;;;;5055015;28;20029;-77
2022/06/26 11:15:25;;;;;;;5.00;3.38;;;;;;;;;;5054665;28;20096;-77
2022/06/26 11:17:51;;;;;;;6.00;3.50;;;;;;;;;;5054874;28;20021;-77
2022/06/26 11:23:02;;;;;;;4.82;2.83;;;;;;;;;;5054878;28;20040;-77
2022/06/26 11:25:29;;;;;;;5.15;2.33;;;;;;;;;;5054807;28;20036;-77
2022/06/26 11:27:56;;;;;;;8.52;2.47;;;;;;;;;;5054759;28;20033;-77
2022/06/26 11:30:22;;;;;;;3.53;2.28;;;;;;;;;;5054563;28;20020;-77
2022/06/26 11:32:48;;;;;;;5.07;2.42;;;;;;;;;;5054420;28;20100;-77
2022/06/26 11:35:24;;;;;;;8.55;2.90;;;;;;;;;;5054148;28;20400;-77
2022/06/26 11:37:50;;;;;;;5.80;2.72;;;;;;;;;;5054392;28;20386;-77
2022/06/26 11:40:17;;;;;;;10.15;3.20;;;;;;;;;;5054264;28;20388;-77
2022/06/26 11:42:44;;;;;;;5.40;2.92;;;;;;;;;;5054121;28;20037;-78
2022/06/26 11:45:10;;;;;;;5.15;2.60;;;;;;;;;;5053974;28;20036;-77
2022/06/26 11:47:38;;;;;;;5.53;2.35;;;;;;;;;;5054118;28;20025;-77
2022/06/26 11:50:04;;;;;;;9.50;2.53;;;;;;;;;;5052712;28;20382;-77
2022/06/26 11:52:30;;;;;;;5.85;2.67;;;;;;;;;;5053899;28;20067;-77
2022/06/26 11:55:00;;;;;;;6.47;2.45;;;;;;;;;;5053881;28;20332;-78
2022/06/26 11:57:26;;;;;;;6.55;2.17;;;;;;;;;;5033713;28;20049;-77
2022/06/26 11:59:52;;;;;;;4.88;2.05;;;;;;;;;;5033980;28;20025;-77
2022/06/26 12:02:22;;;;;;;7.70;2.17;;;;;;;;;;5033934;28;20047;-77
2022/06/26 12:04:55;;;;;;;7.43;2.00;;;;;;;;;;5034201;28;20400;-77
2022/06/26 12:07:22;;;;;;;5.53;2.28;;;;;;;;;;5033776;28;20033;-77
2022/06/26 12:09:48;;;;;;;4.97;2.10;;;;;;;;;;5033862;28;20034;-77
2022/06/26 12:12:14;;;;;;;6.20;2.60;;;;;;;;;;5032342;28;20032;-77
2022/06/26 12:14:53;;;;;;;8.25;2.28;;;;;;;;;;5033728;28;20025;-77
2022/06/26 12:17:26;;;;;;;5.88;2.35;;;;;;;;;;5033703;28;20078;-77
2022/06/26 12:19:53;;;;;;;4.50;1.95;;;;;;;;;;5048938;28;20408;-77
2022/06/26 12:22:32;;;;;;;3.78;1.90;;;;;;;;;;5033621;28;20475;-77
2022/06/26 12:24:58;;;;;;;8.38;2.67;;;;;;;;;;5033695;28;20116;-77
2022/06/26 12:27:35;;;;;;;11.85;2.70;;;;;;;;;;5033643;28;20080;-77
2022/06/26 12:30:01;;;;;;;6.95;2.03;;;;;;;;;;5033411;28;20022;-77
2022/06/26 12:32:27;;;;;;;5.75;1.60;;;;;;;;;;5033487;28;20025;-77
2022/06/26 12:34:53;;;;;;;4.00;1.83;;;;;;;;;;5033263;28;20468;-77
2022/06/26 12:37:19;;;;;;;8.15;3.20;;;;;;;;;;5033159;28;20021;-77
2022/06/26 12:39:46;;;;;;;9.50;3.30;;;;;;;;;;5033215;28;20084;-77
2022/06/26 12:42:13;;;;;;;8.32;2.40;;;;;;;;;;5032835;28;20026;-77
2022/06/26 12:44:39;;;;;;;5.20;2.30;;;;;;;;;;5042290;28;20029;-77
2022/06/26 12:47:05;;;;;;;6.05;1.98;;;;;;;;;;5052968;28;20079;-77
2022/06/26 12:49:31;;;;;;;7.30;2.03;;;;;;;;;;5052640;28;20028;-77
2022/06/26 12:51:57;;;;;;;5.75;2.00;;;;;;;;;;5052733;28;20032;-77
2022/06/26 12:54:23;;;;;;;4.45;2.10;;;;;;;;;;5052889;28;20036;-77
2022/06/26 12:56:49;;;;;;;3.85;2.05;;;;;;;;;;5052609;28;20049;-77
2022/06/26 12:59:15;;;;;;;5.80;2.40;;;;;;;;;;5052696;28;20079;-77
2022/06/26 13:01:41;;;;;;;8.45;2.10;;;;;;;;;;5052803;28;20021;-77
2022/06/26 13:04:07;;;;;;;4.97;1.80;;;;;;;;;;5052564;28;20107;-77
2022/06/26 13:06:33;;;;;;;4.97;1.80;;;;;;;;;;5052820;28;20033;-77
2022/06/26 13:08:59;;;;;;;6.15;2.10;;;;;;;;;;5052784;28;20032;-77
2022/06/26 13:11:27;;;;;;;4.35;1.80;;;;;;;;;;5052847;28;20052;-77
2022/06/26 13:13:53;;;;;;;3.28;1.75;;;;;;;;;;5052598;28;20029;-77
2022/06/26 13:16:19;;;;;;;6.13;1.77;;;;;;;;;;5052808;28;20100;-77
2022/06/26 13:18:45;;;;;;;5.45;1.80;;;;;;;;;;5052611;28;20028;-77
2022/06/26 13:21:11;;;;;;;3.30;1.90;;;;;;;;;;5052429;28;20032;-77
2022/06/26 13:23:37;;;;;;;6.55;2.45;;;;;;;;;;5052000;28;20021;-76
2022/06/26 13:26:03;;;;;;;5.53;2.13;;;;;;;;;;5052346;28;20207;-76
2022/06/26 13:28:29;;;;;;;9.65;2.50;;;;;;;;;;5050879;28;20029;-77
2022/06/26 13:30:55;;;;;;;5.50;2.15;;;;;;;;;;5052354;28;20025;-77
2022/06/26 13:33:23;;;;;;;4.18;1.80;;;;;;;;;;5052205;28;20025;-77
2022/06/26 13:35:49;;;;;;;4.22;1.73;;;;;;;;;;5052012;28;20031;-77
2022/06/26 13:38:15;;;;;;;6.93;2.50;;;;;;;;;;5052193;28;20025;-77
2022/06/26 13:40:42;;;;;;;7.53;2.15;;;;;;;;;;5052183;28;20523;-77
2022/06/26 13:43:08;;;;;;;6.22;2.35;;;;;;;;;;5051972;28;20124;-77
2022/06/26 13:45:34;;;;;;;4.85;2.33;;;;;;;;;;5051786;28;20112;-77
2022/06/26 13:48:00;;;;;;;4.47;2.50;;;;;;;;;;5050608;28;20040;-77
2022/06/26 13:50:26;;;;;;;5.03;1.92;;;;;;;;;;5051904;28;20082;-76
2022/06/26 13:52:52;;;;;;;7.50;2.38;;;;;;;;;;5051983;28;20029;-77
2022/06/26 13:55:18;;;;;;;3.95;2.10;;;;;;;;;;5051904;28;20044;-77
2022/06/26 13:57:44;;;;;;;5.55;2.33;;;;;;;;;;5052015;28;20102;-77
2022/06/26 14:00:10;;;;;;;6.18;2.60;;;;;;;;;;5052112;28;20029;-76
2022/06/26 14:02:36;;;;;;;7.40;2.50;;;;;;;;;;5052142;28;20498;-77
2022/06/26 14:05:02;;;;;;;7.38;2.50;;;;;;;;;;5052294;28;20043;-77
2022/06/26 14:07:28;;;;;;;8.02;2.00;;;;;;;;;;5052031;28;20029;-76
2022/06/26 14:09:54;;;;;;;4.53;2.03;;;;;;;;;;5052098;28;20056;-76
2022/06/26 14:12:21;;;;;;;5.05;2.30;;;;;;;;;;5051975;28;20021;-77
2022/06/26 14:14:47;;;;;;;5.90;2.30;;;;;;;;;;5051640;28;20108;-76
2022/06/26 14:17:13;;;;;;;5.60;2.60;;;;;;;;;;5051833;28;20025;-76
2022/06/26 14:19:39;;;;;;;10.13;2.60;;;;;;;;;;5051827;28;20021;-77
2022/06/26 14:27:34;;;;;;;7.43;3.40;;;;;;;;;;5051637;28;20499;-77
2022/06/26 14:30:00;;;;;;;4.97;2.60;;;;;;;;;;5051455;28;20041;-77
2022/06/26 14:32:26;;;;;;;7.28;2.78;;;;;;;;;;5051416;28;20029;-76
2022/06/26 14:34:53;;;;;;;4.38;2.38;;;;;;;;;;5051562;28;20391;-76
2022/06/26 14:37:19;;;;;;;7.35;3.00;;;;;;;;;;5055872;28;20167;-77
2022/06/26 14:39:45;;;;;;;10.73;2.67;;;;;;;;;;5054454;28;20435;-77
2022/06/26 14:42:11;;;;;;;5.50;2.00;;;;;;;;;;5055759;28;20086;-76
2022/06/26 14:44:37;;;;;;;4.68;2.50;;;;;;;;;;5055524;28;20096;-77
2022/06/26 14:47:03;;;;;;;6.10;2.30;;;;;;;;;;5055617;28;20071;-76
2022/06/26 14:49:29;;;;;;;4.70;2.67;;;;;;;;;;5055569;28;20441;-76
2022/06/26 14:51:55;;;;;;;5.95;2.42;;;;;;;;;;5055721;28;20324;-76